Nearby METAR Reports

 

KTCM - Tacoma,Washington,
Updated: 10/20/2018 11:44pm
Fog, Partly cloudy
Fog, Partly cloudy
 Wind from calm
Wind: Calm
Temperature: 37°F , 3°C
Dew Point: 37°F , 3°C
Humidity: 100%
Barometer: 30.05 inHg , 1017.6 hPa
Summary: Fog
Clouds: Partly cloudy
Visibility: 1/4 mile , 0.4 km
Cloud details: Partly cloudy 0 ft
2018/10/21 06:44 KTCM 210644Z 00000KT 1/4SM R34/1400V1600FT FG SCT000 03/03 A3005 RMK AO2A SLP181 $
KSEA - Seattle,Washington,
Updated: 10/20/2018 10:53pm
Mist, Clear
Mist, Clear
 Wind from NNE
Wind: NNE 7 mph , 11 km/h
Temperature: 48°F , 9°C
Wind Chill: 45°F , 7°C
Dew Point: 45°F , 7°C
Humidity: 87%
Barometer: 30.05 inHg , 1017.6 hPa
Summary: Mist
Clouds: Clear
Visibility: 3 miles , 5 km
2018/10/21 05:53 KSEA 210553Z 02006KT 3SM BR CLR 09/07 A3005 RMK AO2 SLP182 T00890072 10139 20089 56007
 
KOLM - Olympia,Washington,
Updated: 10/20/2018 10:54pm
Fog, Overcast
Fog, Overcast
 Wind from calm
Wind: Calm
Temperature: 39°F , 4°C
Dew Point: 39°F , 4°C
Humidity: 100%
Barometer: 30.06 inHg , 1017.9 hPa
Summary: Fog
Clouds: Overcast
Visibility: less than 1/4 mile , 0.4 km
Cloud details: Overcast 100 ft
2018/10/21 05:54 KOLM 210554Z AUTO 00000KT M1/4SM FG VV001 04/04 A3006 RMK AO2 SLP179 T00390039 10133 20033 56004
KHQM - Hoquiam,Washington,
Updated: 10/20/2018 10:53pm
Mist, Clear
Mist, Clear
 Wind from ENE
Wind: ENE 3 mph , 6 km/h
Temperature: 48°F , 9°C
Dew Point: 46°F , 8°C
Humidity: 94%
Barometer: 30.05 inHg , 1017.6 hPa
Summary: Mist
Clouds: Clear
Visibility: 4 miles , 6 km
2018/10/21 05:53 KHQM 210553Z AUTO 06003KT 4SM BR CLR 09/08 A3005 RMK AO2 SLP178 T00890083 10150 20089 56003
 
KGEG - Spokane,Washington,
Updated: 10/20/2018 10:53pm
Clear
Clear
 Wind from calm
Wind: Calm
Temperature: 43°F , 6°C
Dew Point: 30°F , -1°C
Humidity: 61%
Barometer: 30.10 inHg , 1019.3 hPa
Clouds: Clear
Visibility: 10 miles , 16 km
2018/10/21 05:53 KGEG 210553Z 00000KT 10SM CLR 06/M01 A3010 RMK AO2 SLP198 T00561006 10189 20056 55000
KBLI - Bellingham,Washington,
Updated: 10/20/2018 11:45pm
Mist, Overcast
Mist, Overcast
 Wind from calm
Wind: Calm
Temperature: 43°F , 6°C
Dew Point: 39°F , 4°C
Humidity: 87%
Barometer: 30.06 inHg , 1017.9 hPa
Summary: Mist
Clouds: Overcast
Visibility: 1 1/4 miles , 2 km
Cloud details: Overcast 200 ft
2018/10/21 06:45 KBLI 210645Z AUTO 00000KT 1 1/4SM BR OVC002 06/04 A3006 RMK AO2 T00560039